Time;durP1;ratioP1;P1;durP2;ratioP2;P2;SDS_P1;SDS_P2;PMS_P1;PMS_P2;Temp;Humidity;BMP_temperature;BMP_pressure;BME280_temperature;BME280_humidity;BME280_pressure;Samples;Min_cycle;Max_cycle;Signal;HPM_P1;HPM_P2
2022/12/01 00:00:19;;;;;;;8.48;4.07;;;7.80;99.90;;;7.65;100.00;101911.31;5105692;29;20083;-74
2022/12/01 00:02:51;;;;;;;10.10;4.70;;;7.80;99.90;;;7.63;100.00;101906.03;5106923;29;20047;-73
2022/12/01 00:05:23;;;;;;;10.27;4.80;;;7.80;99.90;;;7.65;100.00;101908.72;5106457;29;20517;-73
2022/12/01 00:07:58;;;;;;;9.20;4.13;;;7.80;99.90;;;7.63;100.00;101911.22;5105705;29;20062;-75
2022/12/01 00:10:29;;;;;;;10.63;4.93;;;7.80;99.90;;;7.65;100.00;101904.41;5105504;29;20500;-75
2022/12/01 00:13:04;;;;;;;9.43;4.05;;;7.80;99.90;;;7.65;100.00;101912.22;5105796;29;20162;-75
2022/12/01 00:15:37;;;;;;;9.35;3.97;;;7.80;99.90;;;7.63;100.00;101911.22;5106424;29;20404;-74
2022/12/01 00:18:10;;;;;;;9.38;4.15;;;7.80;99.90;;;7.61;100.00;101908.50;5105562;29;20528;-74
2022/12/01 00:20:42;;;;;;;11.43;4.75;;;7.80;99.90;;;7.63;100.00;101911.22;5105611;29;20056;-77
2022/12/01 00:23:16;;;;;;;10.88;5.07;;;7.80;99.90;;;7.62;100.00;101910.28;5105321;29;20064;-75
2022/12/01 00:25:48;;;;;;;10.75;5.28;;;7.80;99.90;;;7.60;100.00;101911.00;5105879;29;20055;-75
2022/12/01 00:28:20;;;;;;;11.00;4.95;;;7.80;99.90;;;7.59;100.00;101910.13;5106597;29;20047;-75
2022/12/01 00:30:52;;;;;;;10.20;4.55;;;7.80;99.90;;;7.59;100.00;101910.13;5100245;29;20058;-76
2022/12/01 00:33:24;;;;;;;9.27;4.45;;;7.80;99.90;;;7.59;100.00;101904.91;5090767;29;20048;-75
2022/12/01 00:35:59;;;;;;;10.00;4.63;;;7.80;99.90;;;7.61;100.00;101907.63;5102084;29;20040;-75
2022/12/01 00:38:33;;;;;;;9.70;4.32;;;7.80;99.90;;;7.62;100.00;101906.81;5104775;29;20051;-76
2022/12/01 00:41:06;;;;;;;9.18;4.20;;;7.80;99.90;;;7.60;100.00;101911.00;5120801;29;20074;-74
2022/12/01 00:43:38;;;;;;;10.80;4.60;;;7.80;99.90;;;7.61;100.00;101913.69;5117630;29;20056;-73
2022/12/01 00:46:10;;;;;;;8.77;4.10;;;7.80;99.90;;;7.62;100.00;101909.41;5103984;29;20453;-75
2022/12/01 00:48:42;;;;;;;10.07;4.80;;;7.80;99.90;;;7.62;100.00;101905.09;5103469;29;20523;-73
2022/12/01 00:51:14;;;;;;;8.63;4.50;;;7.80;99.90;;;7.64;100.00;101906.94;5105197;29;20059;-73
2022/12/01 00:53:48;;;;;;;9.52;4.43;;;7.80;99.90;;;7.63;100.00;101906.03;5114647;28;20055;-74
2022/12/01 00:56:20;;;;;;;9.48;4.30;;;7.80;99.90;;;7.65;100.00;101904.41;5085604;29;20044;-74
2022/12/01 00:58:52;;;;;;;8.77;4.10;;;7.80;99.90;;;7.65;100.00;101912.22;5103271;29;20059;-74
2022/12/01 01:01:25;;;;;;;10.93;4.65;;;7.80;99.90;;;7.66;100.00;101911.41;5105881;29;20528;-73
2022/12/01 01:03:58;;;;;;;9.80;4.35;;;7.80;99.90;;;7.64;100.00;101913.00;5105384;29;20052;-73
2022/12/01 01:06:30;;;;;;;8.40;3.78;;;7.80;99.90;;;7.64;100.00;101907.81;5104201;29;20043;-74
2022/12/01 01:09:04;;;;;;;9.00;4.70;;;7.80;99.90;;;7.66;100.00;101911.41;5105569;29;20114;-75
2022/12/01 01:11:36;;;;;;;9.80;4.63;;;7.90;99.90;;;7.67;100.00;101918.38;5105858;29;20055;-74
2022/12/01 01:14:09;;;;;;;7.45;4.13;;;7.80;99.90;;;7.67;100.00;101913.19;5104939;29;20054;-73
2022/12/01 01:16:42;;;;;;;8.90;4.45;;;7.80;99.90;;;7.67;100.00;101923.56;5091836;29;20147;-75
2022/12/01 01:19:14;;;;;;;10.40;4.43;;;7.80;99.90;;;7.64;100.00;101918.22;5100650;29;20052;-75
2022/12/01 01:21:46;;;;;;;9.07;4.10;;;7.80;99.90;;;7.62;100.00;101919.78;5094481;28;20156;-75
2022/12/01 01:24:23;;;;;;;9.82;4.07;;;7.80;99.90;;;7.61;100.00;101929.28;5091265;29;20054;-74
2022/12/01 01:26:55;;;;;;;8.60;4.22;;;7.80;99.90;;;7.61;100.00;101933.56;5102915;29;20063;-75
2022/12/01 01:29:27;;;;;;;9.55;4.03;;;7.80;99.90;;;7.61;100.00;101938.75;5084597;29;20412;-74
2022/12/01 01:31:59;;;;;;;8.38;4.18;;;7.80;99.90;;;7.62;100.00;101935.34;5102955;29;20062;-74
2022/12/01 01:34:32;;;;;;;6.80;3.83;;;7.80;99.90;;;7.64;100.00;101932.88;5094012;29;20646;-74
2022/12/01 01:37:04;;;;;;;7.63;3.70;;;7.80;99.90;;;7.66;100.00;101931.28;5089898;29;20561;-74
2022/12/01 01:39:37;;;;;;;8.25;4.07;;;7.80;99.90;;;7.66;100.00;101933.88;5095979;29;20193;-74
2022/12/01 01:42:11;;;;;;;7.82;3.88;;;7.80;99.90;;;7.67;100.00;101936.56;5104118;29;20437;-75
2022/12/01 01:44:53;;;;;;;8.23;3.75;;;7.80;99.90;;;7.68;100.00;101927.97;5102377;29;20059;-73
2022/12/01 01:47:30;;;;;;;7.15;3.65;;;7.90;99.90;;;7.69;100.00;101934.94;5081087;29;20055;-74
2022/12/01 01:50:08;;;;;;;8.48;4.15;;;7.80;99.90;;;7.68;100.00;101932.25;5091310;29;20051;-75
2022/12/01 01:52:46;;;;;;;7.47;3.95;;;7.80;99.90;;;7.65;100.00;101940.75;5081987;29;20044;-75
2022/12/01 01:55:20;;;;;;;8.50;3.88;;;7.80;99.90;;;7.66;100.00;101932.16;5096142;29;20118;-73
2022/12/01 01:57:52;;;;;;;10.82;4.63;;;7.80;99.90;;;7.65;100.00;101935.56;5103026;29;20044;-73
2022/12/01 02:00:24;;;;;;;8.90;4.57;;;7.80;99.90;;;7.64;100.00;101932.88;5128524;28;20062;-74
2022/12/01 02:02:58;;;;;;;9.20;4.25;;;7.80;99.90;;;7.63;100.00;101931.97;5103824;29;20417;-73
2022/12/01 02:05:33;;;;;;;9.73;4.07;;;7.90;99.90;;;7.63;100.00;101931.97;5110615;29;20078;-74
2022/12/01 02:08:11;;;;;;;9.18;3.92;;;7.80;99.90;;;7.63;100.00;101937.19;5117631;29;20118;-75
2022/12/01 02:11:04;;;;;;;8.13;3.95;;;7.80;99.90;;;7.62;100.00;101927.56;5104996;28;20044;-72
2022/12/01 02:13:50;;;;;;;9.05;4.20;;;7.80;99.90;;;7.65;100.00;101932.06;5095394;29;20409;-74
2022/12/01 02:16:29;;;;;;;9.68;4.25;;;7.90;99.90;;;7.65;100.00;101938.16;5095849;29;20044;-74
2022/12/01 02:19:18;;;;;;;9.60;4.82;;;7.80;99.90;;;7.65;100.00;101930.38;5107739;29;20558;-75
2022/12/01 02:22:05;;;;;;;10.18;4.72;;;7.80;99.90;;;7.63;100.00;101931.97;5103452;29;20051;-74
2022/12/01 02:25:18;;;;;;;10.75;4.38;;;7.80;99.90;;;7.63;100.00;101934.59;5103078;29;20427;-74
2022/12/01 02:28:26;;;;;;;12.13;5.07;;;7.80;99.90;;;7.62;100.00;101932.75;5091105;29;20041;-73
2022/12/01 02:31:05;;;;;;;10.15;4.22;;;7.80;99.90;;;7.65;100.00;101929.47;5093661;29;20051;-75
2022/12/01 02:33:43;;;;;;;10.60;4.53;;;7.80;99.90;;;7.63;100.00;101926.78;5095635;29;20055;-75
2022/12/01 02:36:21;;;;;;;10.40;4.53;;;7.80;99.90;;;7.63;100.00;101921.59;5108571;29;20058;-74
2022/12/01 02:38:58;;;;;;;9.77;5.05;;;7.80;99.90;;;7.63;100.00;101921.59;5104153;29;20082;-75
2022/12/01 02:41:37;;;;;;;9.18;4.60;;;7.80;99.90;;;7.62;100.00;101925.88;5110359;29;20138;-75
2022/12/01 02:44:14;;;;;;;11.07;4.90;;;7.80;99.90;;;7.62;100.00;101914.59;5103674;29;20115;-75
2022/12/01 02:46:52;;;;;;;12.82;5.65;;;7.80;99.90;;;7.61;100.00;101921.47;5103609;29;20046;-75
2022/12/01 02:49:30;;;;;;;10.40;4.75;;;7.80;99.90;;;7.61;100.00;101928.38;5113571;29;20049;-75
2022/12/01 02:52:06;;;;;;;12.80;5.35;;;7.80;99.90;;;7.62;100.00;101922.38;5111065;28;20142;-73
2022/12/01 02:54:39;;;;;;;11.52;5.22;;;7.80;99.90;;;7.60;100.00;101921.38;5101912;29;20058;-75
2022/12/01 02:57:12;;;;;;;10.20;5.10;;;7.80;99.90;;;7.59;100.00;101924.78;5119970;29;20119;-73
2022/12/01 02:59:50;;;;;;;12.40;5.47;;;7.80;99.90;;;7.60;100.00;101924.00;5103787;29;20116;-74
2022/12/01 03:02:41;;;;;;;12.63;6.03;;;7.80;99.90;;;7.60;100.00;101921.38;5104850;29;20048;-74
2022/12/01 03:05:23;;;;;;;13.57;4.95;;;7.80;99.90;;;7.60;100.00;101916.19;5104347;29;20412;-73
2022/12/01 03:08:04;;;;;;;11.25;5.13;;;7.80;99.90;;;7.62;100.00;101924.97;5104447;29;20452;-74
2022/12/01 03:10:48;;;;;;;11.90;5.40;;;7.80;99.90;;;7.62;100.00;101922.38;5103609;29;20051;-75
2022/12/01 03:13:34;;;;;;;12.75;5.35;;;7.80;99.90;;;7.61;100.00;101930.97;5102887;29;20142;-74
2022/12/01 03:16:12;;;;;;;11.57;5.53;;;7.80;99.90;;;7.61;100.00;101928.38;5104334;29;20039;-73
2022/12/01 03:18:53;;;;;;;15.10;6.57;;;7.80;99.90;;;7.59;100.00;101919.59;5102839;29;20416;-74
2022/12/01 03:21:33;;;;;;;13.02;5.80;;;7.80;99.90;;;7.58;100.00;101921.28;5107453;29;20054;-74
2022/12/01 03:24:11;;;;;;;12.50;5.07;;;7.80;99.90;;;7.59;100.00;101922.19;5107704;29;20043;-71
2022/12/01 03:26:48;;;;;;;15.40;5.70;;;7.80;99.90;;;7.60;100.00;101921.38;5107737;29;20099;-72
2022/12/01 03:29:25;;;;;;;19.55;6.90;;;7.80;99.90;;;7.56;100.00;101920.31;5107932;29;20067;-72
2022/12/01 03:32:03;;;;;;;15.98;6.30;;;7.80;99.90;;;7.52;100.00;101909.63;5106581;29;20150;-70
2022/12/01 03:34:43;;;;;;;12.68;5.32;;;7.80;99.90;;;7.51;100.00;101916.50;5108284;29;20073;-69
2022/12/01 03:37:21;;;;;;;15.00;6.88;;;7.70;99.90;;;7.51;100.00;101919.09;5107200;29;20051;-73
2022/12/01 03:39:56;;;;;;;14.48;6.50;;;7.70;99.90;;;7.52;100.00;101917.41;5105906;29;20057;-72
2022/12/01 03:42:35;;;;;;;15.18;6.43;;;7.70;99.90;;;7.52;100.00;101912.22;5107573;29;20055;-69
2022/12/01 03:45:16;;;;;;;14.40;6.10;;;7.70;99.90;;;7.51;100.00;101919.09;5105379;29;20116;-70
2022/12/01 03:47:48;;;;;;;17.63;8.07;;;7.70;99.90;;;7.52;100.00;101915.72;5107010;29;20052;-69
2022/12/01 03:50:27;;;;;;;13.30;5.65;;;7.70;99.90;;;7.55;100.00;101915.00;5105540;29;20047;-74
2022/12/01 03:53:08;;;;;;;17.00;7.30;;;7.70;99.90;;;7.54;100.00;101914.09;5105643;29;20056;-69
2022/12/01 03:55:44;;;;;;;14.93;6.03;;;7.80;99.90;;;7.54;100.00;101916.69;5106713;29;20047;-70
2022/12/01 03:58:24;;;;;;;17.70;6.82;;;7.70;99.90;;;7.51;100.00;101916.50;5106847;29;20472;-71
2022/12/01 04:00:58;;;;;;;17.25;6.45;;;7.70;99.90;;;7.49;100.00;101912.91;5106829;29;20453;-69
2022/12/01 04:03:30;;;;;;;14.00;6.45;;;7.70;99.90;;;7.49;100.00;101927.56;5106862;29;20055;-70
2022/12/01 04:06:05;;;;;;;17.10;7.32;;;7.70;99.90;;;7.46;100.00;101925.69;5105110;29;20051;-70
2022/12/01 04:08:38;;;;;;;17.55;7.85;;;7.70;99.90;;;7.47;100.00;101924.00;5106686;29;20517;-69
2022/12/01 04:14:00;;;;;;;16.25;6.43;;;7.70;99.90;;;7.47;100.00;101924.00;5105578;29;20046;-70
2022/12/01 04:16:32;;;;;;;17.38;7.28;;;7.70;99.90;;;7.46;100.00;101923.09;5106459;29;20056;-70
2022/12/01 04:19:04;;;;;;;18.95;6.95;;;7.70;99.90;;;7.46;100.00;101919.59;5106477;29;20048;-69
2022/12/01 04:21:37;;;;;;;17.70;6.78;;;7.70;99.90;;;7.46;100.00;101912.72;5106481;29;20047;-70
2022/12/01 04:24:11;;;;;;;19.55;6.40;;;7.70;99.90;;;7.45;100.00;101923.91;5106162;29;20052;-70
2022/12/01 04:26:44;;;;;;;17.48;6.78;;;7.70;99.90;;;7.46;100.00;101922.19;5104795;29;20050;-69
2022/12/01 04:29:17;;;;;;;18.08;6.32;;;7.70;99.90;;;7.46;100.00;101917.00;5106228;29;20118;-72
2022/12/01 04:31:50;;;;;;;16.63;6.68;;;7.70;99.90;;;7.47;100.00;101919.69;5104955;29;20505;-70
2022/12/01 04:34:22;;;;;;;14.75;5.97;;;7.70;99.90;;;7.52;100.00;101922.59;5104891;29;20572;-70
2022/12/01 04:36:56;;;;;;;14.57;6.43;;;7.70;99.90;;;7.52;100.00;101923.50;5105750;29;20054;-70
2022/12/01 04:39:28;;;;;;;15.07;6.53;;;7.70;99.90;;;7.52;100.00;101922.59;5106158;29;20078;-69
2022/12/01 04:42:01;;;;;;;15.77;6.85;;;7.70;99.90;;;7.52;100.00;101918.31;5105599;29;20051;-70
2022/12/01 04:44:33;;;;;;;15.43;6.45;;;7.70;99.90;;;7.54;100.00;101916.69;5105712;29;20048;-71
2022/12/01 04:47:07;;;;;;;14.98;6.20;;;7.70;99.90;;;7.55;100.00;101923.69;5106291;29;20039;-70
2022/12/01 04:49:39;;;;;;;15.60;6.35;;;7.70;99.90;;;7.57;100.00;101921.22;5105480;29;20080;-70
2022/12/01 04:52:13;;;;;;;14.65;6.82;;;7.70;99.90;;;7.55;100.00;101915.88;5105903;29;20054;-70
2022/12/01 04:54:45;;;;;;;18.00;6.32;;;7.70;99.90;;;7.56;100.00;101925.50;5105324;29;20052;-70
2022/12/01 04:57:17;;;;;;;15.18;6.60;;;7.70;99.90;;;7.56;100.00;101924.56;5105707;29;20046;-70
2022/12/01 04:59:49;;;;;;;14.25;6.68;;;7.70;99.90;;;7.56;100.00;101924.56;5105668;29;20043;-70
2022/12/01 05:02:21;;;;;;;14.52;6.22;;;7.70;99.90;;;7.56;100.00;101925.50;5105535;29;20052;-70
2022/12/01 05:04:53;;;;;;;16.80;6.93;;;7.70;99.90;;;7.55;100.00;101925.38;5104109;29;20505;-70
2022/12/01 05:07:27;;;;;;;16.58;6.50;;;7.70;99.90;;;7.54;100.00;101921.88;5105430;29;20520;-71
2022/12/01 05:09:59;;;;;;;16.95;7.25;;;7.70;99.90;;;7.53;100.00;101924.38;5105196;29;20410;-70
2022/12/01 05:12:31;;;;;;;16.30;6.55;;;7.80;99.90;;;7.54;100.00;101927.06;5105851;29;20047;-70
2022/12/01 05:15:05;;;;;;;16.27;6.45;;;7.70;99.90;;;7.55;100.00;101923.69;5105359;29;20059;-69
2022/12/01 05:17:37;;;;;;;17.27;6.82;;;7.70;99.90;;;7.56;100.00;101922.91;5105343;29;20076;-70
2022/12/01 05:23:06;;;;;;;17.55;7.20;;;7.70;99.90;;;7.51;100.00;101926.00;5294370;23;20077;-70
2022/12/01 05:25:41;;;;;;;17.60;6.93;;;7.70;99.90;;;7.49;100.00;101932.75;5137739;28;20070;-71
2022/12/01 05:28:13;;;;;;;16.35;7.25;;;7.70;99.90;;;7.49;100.00;101925.88;5143484;28;20050;-69
2022/12/01 05:30:45;;;;;;;16.40;7.22;;;7.70;99.90;;;7.49;100.00;101931.06;5144390;28;20051;-69
2022/12/01 05:33:17;;;;;;;19.95;7.82;;;7.70;99.90;;;7.50;100.00;101929.41;5144478;28;20047;-69
2022/12/01 05:35:51;;;;;;;16.50;7.13;;;7.70;99.90;;;7.47;100.00;101924.88;5144005;28;20054;-69
2022/12/01 05:38:25;;;;;;;19.42;7.32;;;7.70;99.90;;;7.46;100.00;101917.91;5143344;28;20141;-69
2022/12/01 05:40:58;;;;;;;17.42;7.25;;;7.70;99.90;;;7.45;100.00;101925.59;5145112;28;20042;-70
2022/12/01 05:43:30;;;;;;;16.27;6.38;;;7.70;99.90;;;7.46;100.00;101927.38;5142749;28;20507;-70
2022/12/01 05:46:02;;;;;;;18.17;7.65;;;7.60;99.90;;;7.47;100.00;101918.81;5143861;28;20517;-69
2022/12/01 05:48:36;;;;;;;18.88;7.88;;;7.60;99.90;;;7.45;100.00;101923.00;5144373;28;20043;-70
2022/12/01 05:51:09;;;;;;;21.08;8.68;;;7.60;99.90;;;7.42;100.00;101926.28;5144045;28;20039;-70
2022/12/01 05:53:44;;;;;;;21.55;7.85;;;7.60;99.90;;;7.40;100.00;101925.28;5142600;28;20105;-69
2022/12/01 05:56:16;;;;;;;18.85;7.78;;;7.60;99.90;;;7.40;100.00;101927.00;5143820;28;20042;-70
2022/12/01 05:58:48;;;;;;;19.88;8.43;;;7.60;99.90;;;7.37;100.00;101918.97;5144108;28;20042;-70
2022/12/01 06:01:20;;;;;;;19.50;8.13;;;7.60;99.90;;;7.34;100.00;101927.47;5143869;28;20043;-69
2022/12/01 06:03:53;;;;;;;22.08;8.20;;;7.60;99.90;;;7.31;100.00;101925.59;5142175;28;20051;-69
2022/12/01 06:06:26;;;;;;;19.02;8.23;;;7.60;99.90;;;7.32;100.00;101921.31;5143791;28;20082;-69
2022/12/01 06:09:00;;;;;;;23.63;8.48;;;7.60;99.90;;;7.31;100.00;101923.00;5143825;28;20054;-70
2022/12/01 06:11:32;;;;;;;23.95;8.68;;;7.50;99.90;;;7.31;100.00;101929.88;5142432;28;20057;-69
2022/12/01 06:14:04;;;;;;;20.38;7.72;;;7.50;99.90;;;7.30;100.00;101936.78;5143686;28;20043;-69
2022/12/01 06:16:37;;;;;;;22.08;8.05;;;7.50;99.90;;;7.32;100.00;101934.28;5143436;28;20042;-69
2022/12/01 06:19:09;;;;;;;19.98;7.60;;;7.50;99.90;;;7.34;100.00;101937.84;5143609;28;20046;-70
2022/12/01 06:21:41;;;;;;;20.20;7.65;;;7.50;99.90;;;7.34;100.00;101938.75;5143454;28;20050;-70
2022/12/01 06:24:15;;;;;;;20.75;8.13;;;7.50;99.90;;;7.35;100.00;101940.53;5141662;28;20050;-70
2022/12/01 06:26:47;;;;;;;22.20;8.65;;;7.50;99.90;;;7.36;100.00;101941.44;5143819;28;20042;-70
2022/12/01 06:29:19;;;;;;;19.40;7.63;;;7.50;99.90;;;7.37;100.00;101948.44;5143227;28;20058;-69
2022/12/01 06:31:51;;;;;;;20.30;7.97;;;7.60;99.90;;;7.37;100.00;101947.53;5142494;28;20636;-69
2022/12/01 06:34:23;;;;;;;19.92;6.95;;;7.60;99.90;;;7.37;100.00;101947.53;5143506;28;20447;-69
2022/12/01 06:36:55;;;;;;;21.33;8.55;;;7.50;99.90;;;7.37;100.00;101947.53;5143650;28;20054;-69
2022/12/01 06:39:29;;;;;;;20.77;7.65;;;7.60;99.90;;;7.37;100.00;101940.66;5143262;28;20047;-69
2022/12/01 06:42:01;;;;;;;20.92;7.60;;;7.50;99.90;;;7.37;100.00;101942.31;5141897;28;20407;-70
2022/12/01 06:44:33;;;;;;;22.48;7.72;;;7.50;99.90;;;7.37;100.00;101947.53;5141681;28;20047;-69
2022/12/01 06:47:06;;;;;;;16.92;7.20;;;7.60;99.90;;;7.34;100.00;101951.72;5143006;28;20518;-70
2022/12/01 06:49:39;;;;;;;22.38;8.23;;;7.50;99.90;;;7.33;100.00;101949.94;5143027;28;20058;-70
2022/12/01 06:52:11;;;;;;;19.15;7.25;;;7.50;99.90;;;7.33;100.00;101956.81;5143400;28;20515;-70
2022/12/01 06:54:45;;;;;;;19.38;7.65;;;7.50;99.90;;;7.30;100.00;101957.53;5142733;28;20047;-70
2022/12/01 06:57:17;;;;;;;21.27;8.05;;;7.50;99.90;;;7.29;100.00;101960.88;5143452;28;20054;-69
2022/12/01 06:59:49;;;;;;;18.00;7.50;;;7.50;99.90;;;7.26;100.00;101965.88;5142177;28;20070;-69
2022/12/01 07:02:21;;;;;;;19.42;7.55;;;7.50;99.90;;;7.27;100.00;101959.00;5142375;28;20050;-66
2022/12/01 07:04:53;;;;;;;18.00;7.55;;;7.50;99.90;;;7.26;100.00;101965.88;5142297;28;20043;-62
2022/12/01 07:07:25;;;;;;;17.55;7.40;;;7.50;99.90;;;7.26;100.00;101968.47;5143128;28;20049;-61
2022/12/01 07:09:59;;;;;;;17.90;7.13;;;7.40;99.90;;;7.27;100.00;101967.69;5141197;28;20051;-60
2022/12/01 07:12:31;;;;;;;17.05;7.30;;;7.50;99.90;;;7.30;100.00;101964.38;5142810;28;20050;-58
2022/12/01 07:15:04;;;;;;;19.63;7.95;;;7.50;99.90;;;7.27;100.00;101965.09;5142256;28;20047;-60
2022/12/01 07:17:36;;;;;;;19.02;7.15;;;7.50;99.90;;;7.25;100.00;101970.97;5142717;28;20039;-59
2022/12/01 07:20:10;;;;;;;17.90;7.47;;;7.50;99.90;;;7.24;100.00;101972.69;5142438;28;20335;-59
2022/12/01 07:22:42;;;;;;;19.27;7.20;;;7.50;99.90;;;7.27;100.00;101984.94;5141378;28;20074;-58
2022/12/01 07:25:16;;;;;;;16.17;6.75;;;7.50;99.90;;;7.30;100.00;101990.31;5142609;28;20109;-57
2022/12/01 07:27:48;;;;;;;18.02;6.50;;;7.50;99.90;;;7.33;100.00;101994.03;5142536;28;20825;-58
2022/12/01 07:30:20;;;;;;;15.50;7.05;;;7.50;99.90;;;7.34;100.00;101995.81;5141181;28;20054;-59
2022/12/01 07:32:52;;;;;;;19.70;8.35;;;7.60;99.90;;;7.35;100.00;101997.63;5142780;28;20051;-59
2022/12/01 07:35:24;;;;;;;17.73;6.82;;;7.50;99.90;;;7.35;100.00;101992.44;5142546;28;20073;-59
2022/12/01 07:37:57;;;;;;;17.17;7.15;;;7.50;99.90;;;7.38;100.00;102002.13;5142793;28;20042;-59
2022/12/01 07:40:30;;;;;;;17.25;7.10;;;7.60;99.90;;;7.40;100.00;101999.63;5157201;28;20081;-59
2022/12/01 07:43:02;;;;;;;15.27;6.20;;;7.60;99.90;;;7.42;100.00;102004.09;5142598;28;20050;-59
2022/12/01 07:45:35;;;;;;;23.13;8.98;;;7.60;99.90;;;7.42;100.00;102011.00;5141829;28;20428;-59
2022/12/01 07:48:07;;;;;;;16.05;6.97;;;7.60;99.90;;;7.41;100.00;102002.31;5141012;28;20053;-60
2022/12/01 07:50:39;;;;;;;19.65;7.25;;;7.60;99.90;;;7.43;100.00;102000.72;5142083;28;20122;-59
2022/12/01 07:53:11;;;;;;;15.75;6.90;;;7.60;99.90;;;7.45;100.00;102008.63;5142136;28;20047;-59
2022/12/01 07:55:49;;;;;;;18.95;7.57;;;7.60;99.90;;;7.48;100.00;101996.72;5140269;28;20050;-59
2022/12/01 07:58:21;;;;;;;17.60;7.53;;;7.60;99.90;;;7.50;100.00;101997.75;5142021;28;20101;-60
2022/12/01 08:00:54;;;;;;;16.05;6.53;;;7.70;99.90;;;7.50;100.00;102008.13;5142106;28;20374;-60
2022/12/01 08:03:26;;;;;;;16.73;6.80;;;7.60;99.90;;;8.04;100.00;102003.84;5142550;28;20047;-59
2022/12/01 08:05:58;;;;;;;14.60;6.90;;;8.20;99.90;;;8.12;100.00;102003.50;5141728;28;20054;-59
2022/12/01 08:08:34;;;;;;;15.35;6.63;;;8.30;99.90;;;8.04;100.00;102003.84;5145630;28;20054;-59
2022/12/01 08:11:11;;;;;;;17.65;7.47;;;8.20;99.90;;;7.97;100.00;101999.06;5144692;28;20412;-59
2022/12/01 08:13:43;;;;;;;17.52;7.28;;;8.20;99.90;;;8.04;100.00;102001.25;5145457;28;20051;-59
2022/12/01 08:16:18;;;;;;;18.25;7.50;;;8.20;99.90;;;7.98;100.00;102004.34;5145840;28;20493;-60
2022/12/01 08:18:51;;;;;;;;;;;8.20;99.90;;;7.87;100.00;102001.03;5146538;28;20049;-60
2022/12/01 08:21:24;;;;;;;17.30;7.25;;;8.10;99.90;;;7.82;100.00;102007.66;5145488;28;19929;-60
2022/12/01 08:23:58;;;;;;;19.02;6.95;;;8.00;99.90;;;7.78;100.00;102005.66;5145153;28;20054;-59
2022/12/01 08:26:31;;;;;;;19.83;7.72;;;8.00;99.90;;;7.80;100.00;102009.22;5145548;28;20050;-61
2022/12/01 08:29:03;;;;;;;21.02;7.88;;;8.00;99.90;;;8.03;100.00;102017.63;5145352;28;20043;-60
2022/12/01 08:31:36;;;;;;;19.65;8.10;;;8.10;99.90;;;8.15;100.00;102010.63;5145326;28;20171;-60
2022/12/01 08:34:09;;;;;;;16.65;7.20;;;8.30;99.90;;;8.20;100.00;102016.09;5144978;28;20078;-60
2022/12/01 08:36:41;;;;;;;21.15;7.65;;;8.30;99.90;;;8.16;100.00;102018.50;5147532;28;20042;-60
2022/12/01 08:39:13;;;;;;;18.23;7.63;;;8.30;99.90;;;8.09;100.00;102018.91;5165398;28;20049;-60
2022/12/01 08:41:46;;;;;;;16.90;7.25;;;8.20;99.90;;;8.03;100.00;102017.63;5154801;28;20404;-60
2022/12/01 08:44:18;;;;;;;20.52;6.57;;;8.20;99.90;;;8.00;100.00;102025.19;5144887;28;20433;-60
2022/12/01 08:46:50;;;;;;;18.60;6.65;;;8.20;99.90;;;7.99;100.00;102015.63;5143098;28;20407;-60
2022/12/01 08:49:22;;;;;;;17.52;8.00;;;8.10;99.90;;;7.97;100.00;102020.72;5145046;28;20046;-60
2022/12/01 08:51:55;;;;;;;17.38;6.85;;;8.10;99.90;;;7.95;100.00;102024.00;5144929;28;20043;-60
2022/12/01 08:54:27;;;;;;;15.82;6.40;;;8.10;99.90;;;7.95;100.00;102024.91;5144795;28;20077;-59
2022/12/01 08:57:00;;;;;;;13.45;6.05;;;8.10;99.90;;;7.95;100.00;102029.19;5143314;28;20049;-60
2022/12/01 08:59:32;;;;;;;16.23;6.57;;;8.10;99.90;;;7.93;100.00;102026.50;5145781;28;20371;-60
2022/12/01 09:02:05;;;;;;;17.95;6.82;;;8.10;99.90;;;7.89;100.00;102022.81;5144073;28;20050;-60
2022/12/01 09:04:37;;;;;;;15.50;6.32;;;8.10;99.90;;;7.89;100.00;102028.03;5143762;28;20058;-60
2022/12/01 09:07:13;;;;;;;17.48;6.90;;;8.00;99.90;;;7.89;100.00;102025.44;5145318;28;20059;-60
2022/12/01 09:09:46;;;;;;;19.42;7.70;;;8.00;99.90;;;7.88;100.00;102027.91;5144176;28;20034;-60
2022/12/01 09:12:20;;;;;;;14.15;5.93;;;8.00;99.90;;;7.88;100.00;102028.78;5145164;28;20047;-60
2022/12/01 09:14:52;;;;;;;12.55;5.55;;;8.00;99.90;;;7.89;100.00;102032.31;5144773;28;20117;-59
2022/12/01 09:17:24;;;;;;;13.95;6.00;;;8.00;99.90;;;7.90;100.00;102031.50;5144991;28;20467;-60
2022/12/01 09:19:56;;;;;;;13.90;6.15;;;8.00;99.90;;;7.92;100.00;102040.28;5144394;28;20045;-60
2022/12/01 09:22:28;;;;;;;14.55;7.00;;;8.00;99.90;;;7.91;100.00;102035.00;5144874;28;20050;-59
2022/12/01 09:25:00;;;;;;;11.27;5.05;;;8.00;99.90;;;7.90;100.00;102028.91;5144663;28;20047;-59
2022/12/01 09:27:33;;;;;;;14.05;6.57;;;8.00;99.90;;;7.92;100.00;102034.19;5144864;28;20069;-59
2022/12/01 09:30:08;;;;;;;13.35;5.97;;;8.00;99.90;;;7.94;100.00;102032.59;5144948;28;20047;-60
2022/12/01 09:32:40;;;;;;;12.77;5.35;;;8.10;99.90;;;7.93;100.00;102039.47;5144570;28;20046;-59
2022/12/01 09:35:12;;;;;;;12.07;5.40;;;8.10;99.90;;;7.92;100.00;102037.69;5144626;28;20043;-59
2022/12/01 09:37:44;;;;;;;16.58;7.15;;;8.10;99.90;;;7.98;100.00;102034.59;5144738;28;20057;-59
2022/12/01 09:40:16;;;;;;;15.40;6.82;;;8.10;99.90;;;8.05;100.00;102037.69;5144504;28;20043;-59
2022/12/01 09:42:50;;;;;;;16.75;7.20;;;8.10;99.90;;;8.15;100.00;102039.19;5145628;28;20059;-59
2022/12/01 09:45:27;;;;;;;16.75;7.50;;;8.20;99.90;;;8.29;100.00;102038.38;5145029;28;20069;-61
2022/12/01 09:48:02;;;;;;;15.18;6.38;;;8.40;99.90;;;8.32;100.00;102048.94;5145063;28;20043;-58
2022/12/01 09:50:35;;;;;;;19.30;7.43;;;8.40;99.90;;;8.33;100.00;102040.34;5144868;28;20047;-60
2022/12/01 09:53:09;;;;;;;15.95;5.95;;;8.50;99.90;;;8.32;100.00;102033.34;5144445;28;20408;-60
2022/12/01 09:55:41;;;;;;;16.98;7.53;;;8.50;99.90;;;8.31;100.00;102041.97;5144044;28;20571;-60
2022/12/01 09:58:20;;;;;;;20.08;6.80;;;8.40;99.90;;;8.31;100.00;102039.34;5144272;28;20504;-61
2022/12/01 10:00:54;;;;;;;15.60;6.72;;;8.40;99.90;;;8.32;100.00;102035.94;5144576;28;20499;-61
2022/12/01 10:03:34;;;;;;;13.23;6.43;;;8.50;99.90;;;8.35;100.00;102038.81;5144139;28;20419;-60
2022/12/01 10:06:14;;;;;;;16.13;6.68;;;8.50;99.90;;;8.40;100.00;102034.75;5144138;28;20082;-60
2022/12/01 10:08:55;;;;;;;14.45;6.50;;;8.50;99.90;;;8.41;100.00;102034.00;5144070;28;20429;-60
2022/12/01 10:11:33;;;;;;;12.82;6.18;;;8.50;99.90;;;8.39;100.00;102040.78;5144179;28;20042;-59
2022/12/01 10:14:14;;;;;;;14.15;6.13;;;8.50;99.90;;;8.34;100.00;102036.03;5144111;28;20047;-56
2022/12/01 10:16:56;;;;;;;13.05;5.50;;;8.50;99.90;;;8.30;100.00;102029.78;5144576;28;20512;-58
2022/12/01 10:19:36;;;;;;;14.23;5.30;;;8.50;99.90;;;8.28;100.00;102025.25;5144452;28;20043;-58
2022/12/01 10:22:50;;;;;;;11.57;5.65;;;8.50;99.90;;;8.28;100.00;102030.47;5142373;28;20050;-60
2022/12/01 10:25:25;;;;;;;11.05;5.47;;;8.50;99.90;;;8.28;100.00;102023.59;5110561;28;20090;-60
2022/12/01 10:28:29;;;;;;;12.30;5.43;;;8.50;99.90;;;8.24;100.00;102021.59;5143928;28;20125;-64
2022/12/01 10:31:11;;;;;;;11.38;4.90;;;8.50;99.90;;;8.27;100.00;102026.97;5138738;28;20061;-61
2022/12/01 10:33:57;;;;;;;13.07;5.65;;;8.40;99.90;;;8.35;100.00;102018.00;5145276;28;20047;-60
2022/12/01 10:36:32;;;;;;;9.85;5.10;;;8.60;99.90;;;8.31;100.00;102021.16;5145257;28;20050;-60
2022/12/01 10:39:06;;;;;;;10.48;4.78;;;8.50;99.90;;;8.22;100.00;102011.91;5140398;28;20051;-60
2022/12/01 10:41:40;;;;;;;8.75;4.60;;;8.40;99.90;;;8.14;100.00;102017.50;5131677;28;20575;-60
2022/12/01 10:44:13;;;;;;;9.35;4.10;;;8.40;99.90;;;8.08;100.00;102011.00;5136313;28;20042;-60
2022/12/01 10:46:50;;;;;;;8.48;3.58;;;8.30;99.90;;;8.07;100.00;102009.22;5142066;28;20381;-60
2022/12/01 10:49:37;;;;;;;7.88;3.97;;;8.30;99.90;;;8.08;100.00;102014.50;5141155;28;20159;-60
2022/12/01 10:52:33;;;;;;;8.98;4.38;;;8.20;99.90;;;8.06;100.00;102010.91;5142677;28;20108;-60